createdAt,value
2023-04-08T00:00:01.807Z,8.5
2023-04-08T00:10:01.932Z,8.4
2023-04-08T00:20:01.045Z,8.4
2023-04-08T00:30:00.812Z,8.1
2023-04-08T00:40:01.363Z,8.1
2023-04-08T00:50:00.787Z,8.4
2023-04-08T01:00:01.416Z,8.3
2023-04-08T01:10:01.506Z,8.3
2023-04-08T01:20:01.280Z,8.4
2023-04-08T01:30:01.567Z,8.3
2023-04-08T01:40:00.929Z,8.6
2023-04-08T01:50:03.301Z,8.0
2023-04-08T02:00:01.423Z,8.2
2023-04-08T02:10:01.328Z,8.2
2023-04-08T02:20:02.680Z,8.3
2023-04-08T02:30:01.388Z,8.2
2023-04-08T02:40:02.337Z,8.1
2023-04-08T02:50:01.001Z,8.1
2023-04-08T03:00:00.949Z,7.9
2023-04-08T03:10:01.019Z,8.2
2023-04-08T03:20:05.145Z,8.1
2023-04-08T03:30:02.149Z,8.4
2023-04-08T03:40:01.299Z,8.1
2023-04-08T03:50:00.783Z,8.0
2023-04-08T04:00:01.293Z,8.1
2023-04-08T04:10:01.450Z,7.9
2023-04-08T04:20:01.595Z,7.8
2023-04-08T04:30:00.899Z,7.9
2023-04-08T04:40:00.841Z,7.9
2023-04-08T04:50:01.876Z,8.0
2023-04-08T05:00:02.759Z,8.3
2023-04-08T05:10:02.909Z,8.3
2023-04-08T05:20:01.511Z,8.2
2023-04-08T05:30:02.983Z,8.3
2023-04-08T05:40:00.888Z,8.9
2023-04-08T05:50:01.007Z,8.8
2023-04-08T06:00:01.316Z,8.7
2023-04-08T06:10:01.527Z,8.9
2023-04-08T06:20:01.143Z,8.9
2023-04-08T06:30:00.832Z,9.4
2023-04-08T06:40:00.774Z,9.2
2023-04-08T06:50:00.841Z,9.5
2023-04-08T07:00:01.471Z,10.3
2023-04-08T07:10:00.870Z,9.8
2023-04-08T07:20:00.897Z,10.1
2023-04-08T07:30:01.510Z,10.2
2023-04-08T07:40:03.470Z,10.1
2023-04-08T07:50:01.307Z,10.1
2023-04-08T08:00:01.534Z,10.5
2023-04-08T08:10:01.244Z,10.5
2023-04-08T08:30:01.503Z,10.6
2023-04-08T08:40:04.078Z,11.2
2023-04-08T08:50:00.848Z,11.2
2023-04-08T09:00:00.975Z,11.5
2023-04-08T09:10:01.006Z,11.6
2023-04-08T09:20:01.080Z,11.5
2023-04-08T09:30:02.750Z,10.9
2023-04-08T09:40:00.774Z,11.2
2023-04-08T09:50:01.265Z,11.3
2023-04-08T10:00:01.225Z,11.3
2023-04-08T10:10:00.940Z,13.4
2023-04-08T10:20:01.424Z,12.9
2023-04-08T10:30:01.211Z,13.0
2023-04-08T10:40:00.874Z,13.3
2023-04-08T10:50:00.850Z,13.1
2023-04-08T11:00:01.210Z,13.9
2023-04-08T11:10:01.038Z,13.7
2023-04-08T11:20:01.071Z,14.1
2023-04-08T11:30:01.841Z,13.8
2023-04-08T11:40:00.923Z,13.1
2023-04-08T11:50:01.077Z,13.2
2023-04-08T12:00:01.406Z,13.8
2023-04-08T12:10:01.022Z,17.3
2023-04-08T12:20:01.053Z,15.7
2023-04-08T12:30:01.489Z,16.1
2023-04-08T12:40:03.656Z,15.9
2023-04-08T12:50:01.066Z,15.1
2023-04-08T13:00:00.828Z,17.4
2023-04-08T13:10:01.235Z,17.1
2023-04-08T13:20:00.868Z,18.5
2023-04-08T13:30:01.595Z,19.4
2023-04-08T13:40:01.065Z,20.7
2023-04-08T13:50:01.907Z,16.4
2023-04-08T14:00:02.913Z,18.4
2023-04-08T14:10:01.177Z,21.5
2023-04-08T14:20:02.615Z,20.2
2023-04-08T14:30:01.422Z,20.4
2023-04-08T14:40:00.872Z,20.3
2023-04-08T14:50:00.798Z,21.2
2023-04-08T15:00:01.565Z,18.9
2023-04-08T15:10:02.028Z,16.9
2023-04-08T15:20:00.982Z,19.5
2023-04-08T15:30:00.971Z,20.2
2023-04-08T15:40:02.212Z,19.5
2023-04-08T15:50:01.550Z,17.8
2023-04-08T16:00:01.310Z,16.5
2023-04-08T16:10:01.244Z,16.7
2023-04-08T16:20:01.290Z,20.2
2023-04-08T16:30:00.826Z,17.8
2023-04-08T16:40:00.887Z,16.9
2023-04-08T16:50:01.290Z,15.7
2023-04-08T17:00:01.610Z,13.6
2023-04-08T17:10:01.898Z,13.2
2023-04-08T17:20:01.114Z,12.5
2023-04-08T17:30:00.849Z,11.8
2023-04-08T17:40:01.670Z,11.5
2023-04-08T17:50:01.103Z,11.2
2023-04-08T18:00:01.065Z,11.0
2023-04-08T18:10:00.823Z,10.7
2023-04-08T18:20:00.906Z,10.9
2023-04-08T18:30:01.253Z,10.7
2023-04-08T18:40:00.869Z,11.0
2023-04-08T18:50:00.878Z,10.9
2023-04-08T19:00:01.314Z,10.8
2023-04-08T19:10:00.799Z,10.7
2023-04-08T19:20:01.319Z,10.9
2023-04-08T19:30:00.763Z,10.9
2023-04-08T19:40:00.805Z,11.0
2023-04-08T19:50:01.218Z,11.0
2023-04-08T20:00:01.941Z,10.9
2023-04-08T20:10:03.895Z,10.7
2023-04-08T20:20:02.217Z,10.4
2023-04-08T20:30:02.454Z,10.7
2023-04-08T20:40:02.468Z,10.3
2023-04-08T20:50:01.704Z,10.4
2023-04-08T21:00:02.167Z,10.3
2023-04-08T21:10:02.597Z,10.4
2023-04-08T21:20:01.359Z,10.4
2023-04-08T21:30:01.064Z,10.4
2023-04-08T21:40:01.498Z,10.6
2023-04-08T21:50:01.017Z,10.4
2023-04-08T22:00:02.196Z,10.2
2023-04-08T22:10:01.949Z,9.6
2023-04-08T22:20:01.300Z,9.4
2023-04-08T22:30:01.382Z,9.6
2023-04-08T22:40:01.018Z,9.2
2023-04-08T22:50:01.985Z,9.0
2023-04-08T23:00:04.149Z,9.2
2023-04-08T23:10:01.968Z,8.9
2023-04-08T23:20:01.894Z,8.7
2023-04-08T23:30:02.092Z,8.6
2023-04-08T23:40:02.188Z,8.7
2023-04-08T23:50:01.952Z,8.7
